createdAt,value
2022-08-09T00:00:11.277Z,2.37
2022-08-09T00:02:49.566Z,2.80
2022-08-09T00:06:19.074Z,2.53
2022-08-09T00:08:11.060Z,2.87
2022-08-09T00:10:40.343Z,2.50
2022-08-09T00:13:17.135Z,2.40
2022-08-09T00:15:59.065Z,2.83
2022-08-09T00:18:35.022Z,2.40
2022-08-09T00:21:07.739Z,2.10
2022-08-09T00:23:55.199Z,2.50
2022-08-09T00:26:29.508Z,2.77
2022-08-09T00:28:59.689Z,2.27
2022-08-09T00:31:57.590Z,2.40
2022-08-09T00:34:13.657Z,2.60
2022-08-09T00:36:41.606Z,2.30
2022-08-09T00:39:16.992Z,2.37
2022-08-09T00:44:15.996Z,2.20
2022-08-09T00:44:43.923Z,2.40
2022-08-09T00:47:15.341Z,2.03
2022-08-09T00:49:52.425Z,2.40
2022-08-09T00:52:22.893Z,2.40
2022-08-09T00:55:02.110Z,2.97
2022-08-09T00:57:34.944Z,2.83
2022-08-09T01:00:21.571Z,2.50
2022-08-09T01:02:54.905Z,2.40
2022-08-09T01:05:53.242Z,3.20
2022-08-09T01:08:35.171Z,2.63
2022-08-09T01:11:08.520Z,2.23
2022-08-09T01:14:07.438Z,2.50
2022-08-09T01:16:49.292Z,2.43
2022-08-09T01:19:42.653Z,3.00
2022-08-09T01:22:54.796Z,2.83
2022-08-09T01:25:48.808Z,2.90
2022-08-09T01:28:21.352Z,2.67
2022-08-09T01:30:53.185Z,2.73
2022-08-09T01:33:25.552Z,2.73
2022-08-09T01:36:14.016Z,3.10
2022-08-09T01:38:47.037Z,2.70
2022-08-09T01:41:25.943Z,2.90
2022-08-09T01:43:57.845Z,2.43
2022-08-09T01:46:37.455Z,2.80
2022-08-09T01:49:12.747Z,3.20
2022-08-09T01:51:53.491Z,3.30
2022-08-09T01:54:25.969Z,2.90
2022-08-09T01:56:55.082Z,2.80
2022-08-09T01:59:24.355Z,3.10
2022-08-09T02:02:00.054Z,3.23
2022-08-09T02:04:30.522Z,2.63
2022-08-09T02:07:17.922Z,2.87
2022-08-09T02:10:04.144Z,3.20
2022-08-09T02:12:35.115Z,3.07
2022-08-09T02:15:06.153Z,2.90
2022-08-09T02:18:00.625Z,2.93
2022-08-09T02:20:26.232Z,2.80
2022-08-09T02:23:12.625Z,2.63
2022-08-09T02:25:49.684Z,3.30
2022-08-09T02:28:25.186Z,3.20
2022-08-09T02:31:01.616Z,2.63
2022-08-09T02:33:58.202Z,3.10
2022-08-09T02:36:33.835Z,2.73
2022-08-09T02:39:05.675Z,3.43
2022-08-09T02:41:45.931Z,3.67
2022-08-09T02:44:29.338Z,3.10
2022-08-09T02:47:00.139Z,3.00
2022-08-09T02:49:38.802Z,3.47
2022-08-09T02:52:13.543Z,3.30
2022-08-09T02:54:54.566Z,3.60
2022-08-09T02:57:23.437Z,3.43
2022-08-09T03:00:20.447Z,2.67
2022-08-09T03:02:52.539Z,3.43
2022-08-09T03:05:28.075Z,2.83
2022-08-09T03:07:55.937Z,3.30
2022-08-09T03:10:25.451Z,3.03
2022-08-09T03:12:54.665Z,3.17
2022-08-09T03:15:23.472Z,3.70
2022-08-09T03:17:57.842Z,3.43
2022-08-09T03:20:29.738Z,2.80
2022-08-09T03:23:06.508Z,3.00
2022-08-09T03:26:03.172Z,3.10
2022-08-09T03:28:31.913Z,3.07
2022-08-09T03:31:10.028Z,3.30
2022-08-09T03:33:53.379Z,3.50
2022-08-09T03:36:22.311Z,3.73
2022-08-09T03:38:55.169Z,3.50
2022-08-09T03:41:30.130Z,3.20
2022-08-09T03:44:10.107Z,3.50
2022-08-09T03:46:39.281Z,3.33
2022-08-09T03:49:08.928Z,3.33
2022-08-09T03:51:55.420Z,3.40
2022-08-09T03:54:29.527Z,3.90
2022-08-09T03:57:02.293Z,3.27
2022-08-09T03:59:43.010Z,3.60
2022-08-09T04:02:19.767Z,3.23
2022-08-09T04:04:53.455Z,3.30
2022-08-09T04:07:20.250Z,3.63
2022-08-09T04:09:50.319Z,3.87
2022-08-09T04:12:45.163Z,3.30
2022-08-09T04:15:29.687Z,3.90
2022-08-09T04:18:01.270Z,3.77
2022-08-09T04:20:28.216Z,4.17
2022-08-09T04:22:56.310Z,3.87
2022-08-09T04:25:26.229Z,3.97
2022-08-09T04:27:53.097Z,3.67
2022-08-09T04:30:23.399Z,3.50
2022-08-09T04:32:52.906Z,3.70
2022-08-09T04:35:21.833Z,3.47
2022-08-09T04:37:49.958Z,3.80
2022-08-09T04:40:29.077Z,4.03
2022-08-09T04:43:03.551Z,4.40
2022-08-09T04:45:35.973Z,3.90
2022-08-09T04:48:17.416Z,4.17
2022-08-09T04:50:44.998Z,3.63
2022-08-09T04:53:13.961Z,4.43
2022-08-09T04:55:57.930Z,4.03
2022-08-09T04:58:27.132Z,4.10
2022-08-09T05:00:55.325Z,4.30
2022-08-09T05:03:41.057Z,4.00
2022-08-09T05:06:22.012Z,4.20
2022-08-09T05:09:00.838Z,4.13
2022-08-09T05:11:32.162Z,4.80
2022-08-09T05:14:06.166Z,4.33
2022-08-09T05:16:58.341Z,4.60
2022-08-09T05:19:25.914Z,3.60
2022-08-09T05:21:58.973Z,3.97
2022-08-09T05:24:27.146Z,4.57
2022-08-09T05:26:54.401Z,4.60
2022-08-09T05:29:23.868Z,4.60
2022-08-09T05:31:56.695Z,3.70
2022-08-09T05:34:30.712Z,4.27
2022-08-09T05:37:06.223Z,4.30
2022-08-09T05:39:43.704Z,3.97
2022-08-09T05:42:28.178Z,4.10
2022-08-09T05:44:55.982Z,4.73
2022-08-09T05:47:25.434Z,4.47
2022-08-09T05:50:25.854Z,4.33
2022-08-09T05:52:43.550Z,4.50
2022-08-09T05:55:21.245Z,3.70
2022-08-09T05:57:55.333Z,4.03
2022-08-09T06:00:29.089Z,5.13
2022-08-09T06:03:00.949Z,4.80
2022-08-09T06:05:56.990Z,4.63
2022-08-09T06:08:19.155Z,3.70
2022-08-09T06:10:51.506Z,4.60
2022-08-09T06:13:20.540Z,3.70
2022-08-09T06:15:51.734Z,3.77
2022-08-09T06:18:20.467Z,4.10
2022-08-09T06:20:57.341Z,4.40
2022-08-09T06:23:55.104Z,3.97
2022-08-09T06:26:14.973Z,4.10
2022-08-09T06:28:47.550Z,4.80
2022-08-09T06:31:15.034Z,4.10
2022-08-09T06:33:48.688Z,4.87
2022-08-09T06:36:20.098Z,4.30
2022-08-09T06:38:54.478Z,5.00
2022-08-09T06:41:24.921Z,4.23
2022-08-09T06:44:14.344Z,3.30
2022-08-09T06:46:45.808Z,4.30
2022-08-09T06:49:16.142Z,3.13
2022-08-09T06:51:56.008Z,4.03
2022-08-09T06:54:22.987Z,3.33
2022-08-09T06:56:53.800Z,3.43
2022-08-09T07:00:50.246Z,3.40
2022-08-09T07:02:07.797Z,3.40
2022-08-09T07:04:36.172Z,3.30
2022-08-09T07:07:04.902Z,3.40
2022-08-09T07:09:56.468Z,3.00
2022-08-09T07:12:18.847Z,2.60
2022-08-09T07:14:51.241Z,3.00
2022-08-09T07:17:21.576Z,2.90
2022-08-09T07:19:55.239Z,2.53
2022-08-09T07:22:27.287Z,2.17
2022-08-09T07:25:10.279Z,2.03
2022-08-09T07:27:42.624Z,2.13
2022-08-09T07:30:20.222Z,1.90
2022-08-09T07:32:48.680Z,2.20
2022-08-09T07:35:18.377Z,2.23
2022-08-09T07:37:47.876Z,2.00
2022-08-09T07:40:18.595Z,1.80
2022-08-09T07:42:52.485Z,1.93
2022-08-09T07:45:39.128Z,2.33
2022-08-09T07:48:28.836Z,2.07
2022-08-09T07:51:09.758Z,2.03
2022-08-09T07:54:05.321Z,1.70
2022-08-09T07:56:33.342Z,1.63
2022-08-09T07:59:00.201Z,1.67
2022-08-09T08:01:34.054Z,1.80
2022-08-09T08:04:02.818Z,1.60
2022-08-09T08:06:31.573Z,2.13
2022-08-09T08:09:03.708Z,2.40
2022-08-09T08:12:09.954Z,1.80
2022-08-09T08:14:18.649Z,2.00
2022-08-09T08:17:01.101Z,2.50
2022-08-09T08:19:35.270Z,1.97
2022-08-09T08:22:02.845Z,1.53
2022-08-09T08:24:39.932Z,1.70
2022-08-09T08:27:16.483Z,1.70
2022-08-09T08:29:48.609Z,1.70
2022-08-09T08:32:18.923Z,1.87
2022-08-09T08:34:51.813Z,1.70
2022-08-09T08:37:18.883Z,1.77
2022-08-09T08:39:47.116Z,2.40
2022-08-09T08:42:14.113Z,1.50
2022-08-09T08:44:44.157Z,1.73
2022-08-09T08:47:15.192Z,1.80
2022-08-09T08:49:48.132Z,2.00
2022-08-09T08:52:52.593Z,2.10
2022-08-09T08:55:08.601Z,2.07
2022-08-09T08:57:36.092Z,1.73
2022-08-09T09:00:16.864Z,1.80
2022-08-09T09:02:52.675Z,2.00
2022-08-09T09:05:32.949Z,1.70
2022-08-09T09:08:29.951Z,1.47
2022-08-09T09:11:01.101Z,1.83
2022-08-09T09:13:41.605Z,1.90
2022-08-09T09:16:16.142Z,1.80
2022-08-09T09:18:48.166Z,1.60
2022-08-09T09:21:25.921Z,1.50
2022-08-09T09:23:58.450Z,1.93
2022-08-09T09:26:34.857Z,1.70
2022-08-09T09:29:10.170Z,2.10
2022-08-09T09:32:03.389Z,2.10
2022-08-09T09:34:25.573Z,2.07
2022-08-09T09:36:56.844Z,2.10
2022-08-09T09:39:50.428Z,1.67
2022-08-09T09:42:32.363Z,1.63
2022-08-09T09:45:06.583Z,1.87
2022-08-09T09:47:47.649Z,1.70
2022-08-09T09:50:23.095Z,1.67
2022-08-09T09:52:56.270Z,1.90
2022-08-09T09:55:31.204Z,1.80
2022-08-09T09:58:16.257Z,1.87
2022-08-09T10:00:54.266Z,1.90
2022-08-09T10:03:44.139Z,1.67
2022-08-09T10:06:12.807Z,1.50
2022-08-09T10:08:54.320Z,2.20
2022-08-09T10:12:04.509Z,1.60
2022-08-09T10:14:27.642Z,1.73
2022-08-09T10:17:11.265Z,1.70
2022-08-09T10:19:45.817Z,1.53
2022-08-09T10:22:12.900Z,1.53
2022-08-09T10:24:41.094Z,1.60
2022-08-09T10:27:17.113Z,1.60
2022-08-09T10:30:16.514Z,1.80
2022-08-09T10:32:40.319Z,2.10
2022-08-09T10:35:10.389Z,1.67
2022-08-09T10:37:40.187Z,1.53
2022-08-09T10:40:11.945Z,1.63
2022-08-09T10:42:59.132Z,1.90
2022-08-09T10:45:31.608Z,2.40
2022-08-09T10:48:16.694Z,1.83
2022-08-09T10:51:29.788Z,1.57
2022-08-09T10:54:13.161Z,1.70
2022-08-09T10:56:43.687Z,1.30
2022-08-09T10:59:31.204Z,1.70
2022-08-09T11:03:15.455Z,1.63
2022-08-09T11:05:25.162Z,1.53
2022-08-09T11:08:35.134Z,1.37
2022-08-09T11:11:11.146Z,1.43
2022-08-09T11:13:50.403Z,1.73
2022-08-09T11:16:41.484Z,1.67
2022-08-09T11:19:10.327Z,1.70
2022-08-09T11:22:10.153Z,1.70
2022-08-09T11:25:05.712Z,1.70
2022-08-09T11:28:04.101Z,1.67
2022-08-09T11:30:32.641Z,2.23
2022-08-09T11:33:19.061Z,1.80
2022-08-09T11:35:57.106Z,1.60
2022-08-09T11:38:32.085Z,1.70
2022-08-09T11:41:13.744Z,1.63
2022-08-09T11:43:48.729Z,1.60
2022-08-09T11:46:26.677Z,1.80
2022-08-09T11:49:00.900Z,1.70
2022-08-09T11:53:20.851Z,1.60
2022-08-09T11:55:52.154Z,1.60
2022-08-09T11:58:30.283Z,1.50
2022-08-09T12:01:37.472Z,1.60
2022-08-09T12:04:20.857Z,1.73
2022-08-09T12:06:56.369Z,1.70
2022-08-09T12:09:33.972Z,1.33
2022-08-09T12:12:13.190Z,1.83
2022-08-09T12:15:08.027Z,1.60
2022-08-09T12:17:43.655Z,1.50
2022-08-09T12:20:22.682Z,1.47
2022-08-09T12:22:58.937Z,1.80
2022-08-09T12:25:35.969Z,1.53
2022-08-09T12:29:12.312Z,1.60
2022-08-09T12:31:30.876Z,1.60
2022-08-09T12:34:14.002Z,1.67
2022-08-09T12:36:58.830Z,1.40
2022-08-09T12:39:37.757Z,2.00
2022-08-09T12:42:10.572Z,1.77
2022-08-09T12:44:52.016Z,1.97
2022-08-09T12:47:22.738Z,2.03
2022-08-09T12:50:16.453Z,1.53
2022-08-09T12:53:08.262Z,1.40
2022-08-09T12:56:12.927Z,1.67
2022-08-09T12:58:27.448Z,1.83
2022-08-09T13:00:57.664Z,1.73
2022-08-09T13:03:57.384Z,1.77
2022-08-09T13:06:34.282Z,1.53
2022-08-09T13:09:18.059Z,1.40
2022-08-09T13:11:47.862Z,1.70
2022-08-09T13:14:42.041Z,1.40
2022-08-09T13:17:33.647Z,1.80
2022-08-09T13:20:12.027Z,1.27
2022-08-09T13:23:06.058Z,1.30
2022-08-09T13:25:55.065Z,1.30
2022-08-09T13:28:34.518Z,1.47
2022-08-09T13:32:15.745Z,1.53
2022-08-09T13:33:59.268Z,1.53
2022-08-09T13:36:40.537Z,1.50
2022-08-09T13:41:17.595Z,1.50
2022-08-09T13:42:12.142Z,1.20
2022-08-09T13:44:42.085Z,1.63
2022-08-09T13:47:29.011Z,1.40
2022-08-09T13:50:01.355Z,1.60
2022-08-09T13:52:30.130Z,1.60
2022-08-09T13:55:00.419Z,1.27
2022-08-09T13:57:39.846Z,1.47
2022-08-09T14:00:20.183Z,1.50
2022-08-09T14:03:02.958Z,1.40
2022-08-09T14:05:58.314Z,1.70
2022-08-09T14:08:27.068Z,1.30
2022-08-09T14:10:55.442Z,1.50
2022-08-09T14:14:16.249Z,1.50
2022-08-09T14:16:14.116Z,1.30
2022-08-09T14:18:45.532Z,1.53
2022-08-09T14:21:20.265Z,1.97
2022-08-09T14:23:54.900Z,2.30
2022-08-09T14:26:31.900Z,1.20
2022-08-09T14:29:08.050Z,1.90
2022-08-09T14:31:53.647Z,1.20
2022-08-09T14:34:31.068Z,1.53
2022-08-09T14:37:01.105Z,1.43
2022-08-09T14:39:46.134Z,2.00
2022-08-09T14:42:31.744Z,1.30
2022-08-09T14:46:53.903Z,1.40
2022-08-09T14:47:58.042Z,1.50
2022-08-09T14:50:32.697Z,1.50
2022-08-09T14:53:11.347Z,1.57
2022-08-09T14:55:47.895Z,1.60
2022-08-09T14:58:17.415Z,1.50
2022-08-09T15:00:47.915Z,1.57
2022-08-09T15:03:16.716Z,1.80
2022-08-09T15:05:52.393Z,1.67
2022-08-09T15:08:23.860Z,1.20
2022-08-09T15:11:01.346Z,1.60
2022-08-09T15:13:56.755Z,1.80
2022-08-09T15:16:19.591Z,1.60
2022-08-09T15:18:48.426Z,1.50
2022-08-09T15:21:57.001Z,1.37
2022-08-09T15:24:12.786Z,1.60
2022-08-09T15:26:45.130Z,1.97
2022-08-09T15:31:00.390Z,1.50
2022-08-09T15:31:59.527Z,1.50
2022-08-09T15:34:34.449Z,1.37
2022-08-09T15:37:04.123Z,1.57
2022-08-09T15:39:43.722Z,1.70
2022-08-09T15:42:19.165Z,1.87
2022-08-09T15:44:46.268Z,1.50
2022-08-09T15:47:14.579Z,1.73
2022-08-09T15:50:03.449Z,1.90
2022-08-09T15:52:33.777Z,1.53
2022-08-09T15:55:00.847Z,1.60
2022-08-09T15:57:34.046Z,1.83
2022-08-09T16:00:24.249Z,1.50
2022-08-09T16:02:54.653Z,1.50
2022-08-09T16:05:23.723Z,1.37
2022-08-09T16:07:51.077Z,1.60
2022-08-09T16:10:56.077Z,1.47
2022-08-09T16:13:20.688Z,1.73
2022-08-09T16:16:10.162Z,1.97
2022-08-09T16:18:44.750Z,2.10
2022-08-09T16:21:12.023Z,1.73
2022-08-09T16:23:50.862Z,1.77
2022-08-09T16:26:35.085Z,1.80
2022-08-09T16:29:12.584Z,1.80
2022-08-09T16:32:19.834Z,1.70
2022-08-09T16:34:55.325Z,1.70
2022-08-09T16:37:20.488Z,1.80
2022-08-09T16:40:11.521Z,1.53
2022-08-09T16:42:45.265Z,1.50
2022-08-09T16:45:14.191Z,2.10
2022-08-09T16:48:38.092Z,1.60
2022-08-09T16:50:33.801Z,1.97
2022-08-09T16:53:02.318Z,1.53
2022-08-09T16:55:44.079Z,1.77
2022-08-09T16:58:17.009Z,1.67
2022-08-09T17:00:46.501Z,1.33
2022-08-09T17:03:22.192Z,1.50
2022-08-09T17:06:07.079Z,1.30
2022-08-09T17:08:45.475Z,1.50
2022-08-09T17:11:40.133Z,1.50
2022-08-09T17:14:25.901Z,1.50
2022-08-09T17:17:00.984Z,1.40
2022-08-09T17:20:11.108Z,1.67
2022-08-09T17:22:23.957Z,1.90
2022-08-09T17:24:56.126Z,1.87
2022-08-09T17:27:31.650Z,1.50
2022-08-09T17:29:58.452Z,1.67
2022-08-09T17:32:36.663Z,1.90
2022-08-09T17:35:11.214Z,1.70
2022-08-09T17:38:02.609Z,1.70
2022-08-09T17:40:33.178Z,1.80
2022-08-09T17:43:10.861Z,1.80
2022-08-09T17:46:03.864Z,1.93
2022-08-09T17:48:32.002Z,1.53
2022-08-09T17:50:59.248Z,1.60
2022-08-09T17:53:35.633Z,1.63
2022-08-09T17:56:10.883Z,1.30
2022-08-09T17:58:37.742Z,1.60
2022-08-09T18:01:09.671Z,1.60
2022-08-09T18:03:42.510Z,1.50
2022-08-09T18:06:28.761Z,2.40
2022-08-09T18:08:56.566Z,1.70
2022-08-09T18:11:23.824Z,1.67
2022-08-09T18:13:56.486Z,1.40
2022-08-09T18:16:30.917Z,1.50
2022-08-09T18:20:54.251Z,1.70
2022-08-09T18:21:52.740Z,1.40
2022-08-09T18:24:19.635Z,1.57
2022-08-09T18:26:48.238Z,1.60
2022-08-09T18:30:41.836Z,1.63
2022-08-09T18:32:04.869Z,1.50
2022-08-09T18:34:35.280Z,1.47
2022-08-09T18:37:10.521Z,1.40
2022-08-09T18:39:53.236Z,1.43
2022-08-09T18:42:31.662Z,1.57
2022-08-09T18:45:01.153Z,1.47
2022-08-09T18:47:37.289Z,1.50
2022-08-09T18:50:06.221Z,1.43
2022-08-09T18:52:36.119Z,1.30
2022-08-09T18:55:04.455Z,1.60
2022-08-09T18:57:43.177Z,1.67
2022-08-09T19:00:19.942Z,1.57
2022-08-09T19:02:50.961Z,1.33
2022-08-09T19:05:58.683Z,1.60
2022-08-09T19:08:10.057Z,1.47
2022-08-09T19:10:39.644Z,1.50
2022-08-09T19:13:22.503Z,1.50
2022-08-09T19:15:55.722Z,1.30
2022-08-09T19:18:36.477Z,1.30
2022-08-09T19:21:09.142Z,1.70
2022-08-09T19:24:32.673Z,1.73
2022-08-09T19:26:32.291Z,1.70
2022-08-09T19:29:03.361Z,1.80
2022-08-09T19:31:45.444Z,1.43
2022-08-09T19:34:22.298Z,1.70
2022-08-09T19:36:52.269Z,1.60
2022-08-09T19:39:20.656Z,1.87
2022-08-09T19:41:56.974Z,1.73
2022-08-09T19:44:24.072Z,1.77
2022-08-09T19:46:53.348Z,1.80
2022-08-09T19:50:08.425Z,1.60
2022-08-09T19:52:10.014Z,1.50
2022-08-09T19:54:39.791Z,2.17
2022-08-09T19:57:08.537Z,2.30
2022-08-09T19:59:57.300Z,1.50
2022-08-09T20:04:08.197Z,1.37
2022-08-09T20:05:14.584Z,1.93
2022-08-09T20:07:59.716Z,1.83
2022-08-09T20:10:34.400Z,1.90
2022-08-09T20:13:03.006Z,2.00
2022-08-09T20:16:36.456Z,1.80
2022-08-09T20:18:18.802Z,2.07
2022-08-09T20:20:47.223Z,1.50
2022-08-09T20:23:17.606Z,1.90
2022-08-09T20:25:52.215Z,1.70
2022-08-09T20:28:24.505Z,1.57
2022-08-09T20:31:02.690Z,1.73
2022-08-09T20:33:39.093Z,1.47
2022-08-09T20:36:09.014Z,1.30
2022-08-09T20:39:02.275Z,1.90
2022-08-09T20:41:34.833Z,1.97
2022-08-09T20:44:04.626Z,1.70
2022-08-09T20:46:42.933Z,1.67
2022-08-09T20:49:16.051Z,1.80
2022-08-09T20:51:44.196Z,2.17
2022-08-09T20:54:16.690Z,1.70
2022-08-09T20:56:46.691Z,1.97
2022-08-09T20:59:13.648Z,2.30
2022-08-09T21:01:50.717Z,1.87
2022-08-09T21:05:53.403Z,1.47
2022-08-09T21:07:11.901Z,1.83
2022-08-09T21:09:56.951Z,1.90
2022-08-09T21:12:56.426Z,1.90
2022-08-09T21:15:14.191Z,1.83
2022-08-09T21:18:11.277Z,1.80
2022-08-09T21:20:30.023Z,1.90
2022-08-09T21:22:57.832Z,2.07
2022-08-09T21:25:44.169Z,2.23
2022-08-09T21:28:34.417Z,1.80
2022-08-09T21:31:19.329Z,2.50
2022-08-09T21:33:52.704Z,2.00
2022-08-09T21:36:22.987Z,1.93
2022-08-09T21:38:57.523Z,2.10
2022-08-09T21:42:05.076Z,1.80
2022-08-09T21:44:32.423Z,2.07
2022-08-09T21:47:00.830Z,2.10
2022-08-09T21:49:28.552Z,1.93
2022-08-09T21:51:55.362Z,2.10
2022-08-09T21:54:24.238Z,1.73
2022-08-09T21:56:54.749Z,1.90
2022-08-09T21:59:23.336Z,2.10
2022-08-09T22:02:01.321Z,2.03
2022-08-09T22:04:56.750Z,2.10
2022-08-09T22:07:35.522Z,2.00
2022-08-09T22:10:06.065Z,2.13
2022-08-09T22:12:33.226Z,1.63
2022-08-09T22:15:01.079Z,2.60
2022-08-09T22:17:32.090Z,1.70
2022-08-09T22:20:00.631Z,1.90
2022-08-09T22:22:31.377Z,1.70
2022-08-09T22:26:05.908Z,1.97
2022-08-09T22:27:48.683Z,1.93
2022-08-09T22:30:16.328Z,1.90
2022-08-09T22:32:58.117Z,1.80
2022-08-09T22:36:02.052Z,2.40
2022-08-09T22:38:11.769Z,2.10
2022-08-09T22:40:48.765Z,2.37
2022-08-09T22:44:02.116Z,2.30
2022-08-09T22:48:14.814Z,2.23
2022-08-09T22:48:54.864Z,2.20
2022-08-09T22:51:27.298Z,2.33
2022-08-09T22:54:01.062Z,2.77
2022-08-09T22:56:34.088Z,2.67
2022-08-09T22:59:05.483Z,2.87
2022-08-09T23:01:33.171Z,2.73
2022-08-09T23:04:03.330Z,2.43
2022-08-09T23:06:51.419Z,2.57
2022-08-09T23:09:18.906Z,3.30
2022-08-09T23:11:45.690Z,2.80
2022-08-09T23:14:17.567Z,3.00
2022-08-09T23:16:57.015Z,2.23
2022-08-09T23:19:23.844Z,2.30
2022-08-09T23:21:50.835Z,2.80
2022-08-09T23:24:17.593Z,2.70
2022-08-09T23:26:44.415Z,2.30
2022-08-09T23:29:13.597Z,2.10
2022-08-09T23:31:41.395Z,2.70
2022-08-09T23:34:08.975Z,2.30
2022-08-09T23:36:36.469Z,2.50
2022-08-09T23:39:04.886Z,2.37
2022-08-09T23:41:31.951Z,2.50
2022-08-09T23:44:00.349Z,2.37
2022-08-09T23:46:28.697Z,2.23
2022-08-09T23:48:56.005Z,2.17
2022-08-09T23:51:22.887Z,2.57
2022-08-09T23:53:52.405Z,2.33
2022-08-09T23:56:52.294Z,2.90
2022-08-09T23:59:09.260Z,3.00
